Time;durP1;ratioP1;P1;durP2;ratioP2;P2;SDS_P1;SDS_P2;PMS_P1;PMS_P2;Temp;Humidity;BMP_temperature;BMP_pressure;BME280_temperature;BME280_humidity;BME280_pressure;Samples;Min_cycle;Max_cycle;Signal;HPM_P1;HPM_P2
2022/03/19 00:01:05;;;;;;;4.17;3.87;;;6.10;78.80;5.20;100404.00;;;;5115749;28;20253;-72
2022/03/19 00:03:31;;;;;;;5.27;4.83;;;6.10;78.60;5.30;100397.00;;;;5115734;28;20237;-72
2022/03/19 00:05:58;;;;;;;6.47;5.50;;;6.00;78.60;5.40;100402.00;;;;5098016;28;20298;-72
2022/03/19 00:08:27;;;;;;;12.50;4.73;;;6.20;78.60;5.40;100396.00;;;;5115676;28;20190;-72
2022/03/19 00:10:54;;;;;;;5.77;5.00;;;6.10;78.00;5.20;100397.00;;;;5115894;28;20224;-73
2022/03/19 00:13:20;;;;;;;7.20;5.40;;;6.10;77.50;5.20;100398.00;;;;5115522;28;20229;-72
2022/03/19 00:15:48;;;;;;;7.00;4.33;;;6.00;77.60;5.30;100391.00;;;;5115616;28;20308;-72
2022/03/19 00:18:16;;;;;;;5.70;5.20;;;6.00;78.80;5.20;100386.00;;;;5115510;28;20280;-72
2022/03/19 00:20:43;;;;;;;6.63;5.13;;;6.00;77.60;5.10;100396.00;;;;5115437;28;20524;-72
2022/03/19 00:23:10;;;;;;;4.73;4.27;;;5.90;77.80;5.10;100395.00;;;;5115520;28;20218;-71
2022/03/19 00:25:38;;;;;;;9.40;7.00;;;6.00;77.80;5.10;100379.00;;;;5115640;28;20231;-72
2022/03/19 00:28:05;;;;;;;6.00;4.93;;;5.90;78.20;5.40;100389.00;;;;5115623;28;20600;-72
2022/03/19 00:30:32;;;;;;;5.00;4.60;;;6.00;78.50;5.10;100390.00;;;;5115774;28;20198;-72
2022/03/19 00:32:59;;;;;;;8.07;5.63;;;6.00;77.80;5.30;100385.00;;;;5115386;28;20198;-71
2022/03/19 00:35:26;;;;;;;4.93;4.20;;;6.00;78.10;5.50;100373.00;;;;5115885;28;20182;-72
2022/03/19 00:37:53;;;;;;;4.67;3.73;;;6.10;77.20;5.30;100376.00;;;;5115431;28;20285;-72
2022/03/19 00:40:23;;;;;;;4.77;4.37;;;6.10;77.00;5.30;100377.00;;;;5097214;28;20225;-72
2022/03/19 00:42:50;;;;;;;12.63;5.23;;;6.10;76.80;5.20;100370.00;;;;5097203;28;20198;-72
2022/03/19 00:45:17;;;;;;;5.50;5.00;;;6.00;76.70;5.20;100377.00;;;;5115101;28;20282;-72
2022/03/19 00:47:44;;;;;;;4.10;3.73;;;6.00;77.50;5.10;100366.00;;;;5115010;28;20227;-72
2022/03/19 00:50:13;;;;;;;3.50;3.27;;;5.90;77.40;5.10;100366.00;;;;5115030;28;20186;-72
2022/03/19 00:52:40;;;;;;;5.63;4.40;;;5.90;77.60;5.10;100368.00;;;;5114985;28;20201;-73
2022/03/19 00:55:09;;;;;;;3.67;3.43;;;5.90;77.80;5.00;100372.00;;;;5115021;28;20194;-72
2022/03/19 00:57:41;;;;;;;3.23;2.73;;;5.90;77.80;5.10;100364.00;;;;5114935;28;20700;-73
2022/03/19 01:00:13;;;;;;;4.13;3.70;;;5.80;78.20;5.10;100366.00;;;;5096517;28;20239;-71
2022/03/19 01:02:42;;;;;;;4.87;4.23;;;5.80;78.10;5.20;100370.00;;;;5114375;28;20232;-71
2022/03/19 01:05:13;;;;;;;5.63;5.13;;;5.90;77.60;5.10;100362.00;;;;5114820;28;20625;-72
2022/03/19 01:07:43;;;;;;;4.20;3.17;;;5.90;77.40;5.10;100377.00;;;;5114616;28;20240;-72
2022/03/19 01:10:12;;;;;;;4.37;3.97;;;5.90;77.80;5.00;100363.00;;;;5096927;28;20195;-72
2022/03/19 01:12:38;;;;;;;7.63;5.60;;;5.90;77.20;5.10;100366.00;;;;5114675;28;20198;-72
2022/03/19 01:15:07;;;;;;;3.13;2.93;;;5.90;77.20;5.00;100369.00;;;;5114891;28;20205;-71
2022/03/19 01:17:37;;;;;;;5.00;4.53;;;5.90;76.80;4.90;100369.00;;;;5114868;28;20530;-72
2022/03/19 01:20:06;;;;;;;10.50;5.37;;;5.80;77.00;5.10;100359.00;;;;5114351;28;20324;-72
2022/03/19 01:22:34;;;;;;;4.23;3.93;;;5.80;77.10;5.00;100366.00;;;;5114856;28;20206;-72
2022/03/19 01:25:04;;;;;;;6.40;5.80;;;5.90;76.70;5.20;100358.00;;;;5114489;28;20617;-72
2022/03/19 01:27:31;;;;;;;4.27;3.87;;;5.90;76.60;5.10;100357.00;;;;5114299;28;20221;-72
2022/03/19 01:29:58;;;;;;;4.00;3.77;;;5.90;75.80;5.00;100356.00;;;;5096467;28;20213;-72
2022/03/19 01:32:24;;;;;;;4.20;3.80;;;5.80;75.90;5.00;100357.00;;;;5114381;28;20625;-71
2022/03/19 01:34:51;;;;;;;5.43;4.90;;;5.90;75.30;5.00;100357.00;;;;5114400;28;20240;-71
2022/03/19 01:37:18;;;;;;;4.20;3.80;;;5.80;75.10;4.90;100359.00;;;;5114265;28;20234;-72
2022/03/19 01:39:45;;;;;;;5.13;3.63;;;5.80;75.50;4.90;100354.00;;;;5114458;28;20221;-72
2022/03/19 01:42:12;;;;;;;10.83;4.83;;;5.70;75.80;4.80;100352.00;;;;5096294;28;20209;-72
2022/03/19 01:44:41;;;;;;;6.33;5.77;;;5.70;75.30;4.80;100337.00;;;;5113455;28;20779;-73
2022/03/19 01:47:10;;;;;;;6.33;4.97;;;5.70;75.30;4.80;100342.00;;;;5114001;28;20603;-72
2022/03/19 01:49:37;;;;;;;4.73;4.43;;;5.60;75.70;4.80;100345.00;;;;5114380;28;20284;-72
2022/03/19 01:52:05;;;;;;;6.87;5.87;;;5.60;75.30;4.60;100326.00;;;;5114231;28;20629;-72
2022/03/19 01:54:38;;;;;;;5.50;4.27;;;5.60;75.70;4.50;100338.00;;;;5114319;28;20286;-72
2022/03/19 01:57:07;;;;;;;4.23;3.87;;;5.50;76.20;4.50;100342.00;;;;5114094;28;20288;-72
2022/03/19 01:59:37;;;;;;;7.03;6.33;;;5.40;76.70;4.50;100342.00;;;;5096209;28;20335;-72
2022/03/19 02:02:06;;;;;;;5.77;5.27;;;5.40;77.80;4.50;100340.00;;;;5114403;28;20647;-73
2022/03/19 02:04:35;;;;;;;3.40;3.20;;;5.40;76.90;4.50;100338.00;;;;5114184;28;20270;-72
2022/03/19 02:07:03;;;;;;;5.13;4.37;;;5.40;77.10;4.50;100341.00;;;;5114441;28;20317;-71
2022/03/19 02:09:30;;;;;;;7.83;7.00;;;5.40;77.00;4.60;100341.00;;;;5116499;28;20201;-71
2022/03/19 02:11:57;;;;;;;4.63;4.33;;;5.40;76.80;4.50;100337.00;;;;5115226;28;20221;-70
2022/03/19 02:14:27;;;;;;;7.00;3.37;;;5.40;76.60;4.60;100343.00;;;;5117797;28;20209;-71
2022/03/19 02:16:54;;;;;;;3.90;3.60;;;5.40;76.60;4.70;100335.00;;;;5117836;28;20280;-71
2022/03/19 02:19:23;;;;;;;6.00;5.27;;;5.40;76.50;4.60;100333.00;;;;5100885;28;20212;-71
2022/03/19 02:21:51;;;;;;;4.37;3.97;;;5.50;75.70;4.70;100338.00;;;;5120108;28;20674;-69
2022/03/19 02:27:04;;;;;;;5.27;4.87;;;5.50;75.40;4.60;100335.00;;;;5117491;28;20237;-71
2022/03/19 02:29:31;;;;;;;4.33;3.93;;;5.40;75.10;4.60;100304.00;;;;5117509;28;20214;-71
2022/03/19 02:32:04;;;;;;;6.50;5.90;;;5.40;75.10;4.60;100331.00;;;;5117316;28;20198;-71
2022/03/19 02:34:33;;;;;;;6.80;4.83;;;5.40;75.00;4.60;100326.00;;;;5099462;28;20698;-71
2022/03/19 02:37:00;;;;;;;4.57;3.97;;;5.30;75.50;4.50;100325.00;;;;5117307;28;20243;-71
2022/03/19 02:39:31;;;;;;;4.20;3.90;;;5.30;75.50;4.40;100322.00;;;;5117079;28;20720;-71
2022/03/19 02:42:00;;;;;;;5.10;4.70;;;5.30;75.10;4.50;100312.00;;;;5117164;28;20222;-72
2022/03/19 02:44:27;;;;;;;5.90;4.03;;;5.30;75.10;4.40;100321.00;;;;5117158;28;20198;-71
2022/03/19 02:46:57;;;;;;;4.63;4.17;;;5.30;75.10;4.30;100293.00;;;;5098889;28;20316;-73
2022/03/19 02:49:24;;;;;;;4.30;3.77;;;5.20;75.00;4.10;100321.00;;;;5117072;28;20311;-71
2022/03/19 02:51:55;;;;;;;15.33;5.93;;;5.10;75.80;4.10;100318.00;;;;5116921;28;20210;-71
2022/03/19 02:54:25;;;;;;;5.57;4.33;;;5.00;76.10;4.00;100316.00;;;;5119750;28;20194;-72
2022/03/19 02:56:54;;;;;;;4.83;4.43;;;4.90;75.90;3.90;100306.00;;;;5117021;28;20190;-72
2022/03/19 02:59:25;;;;;;;7.50;5.23;;;4.80;76.10;3.80;100320.00;;;;5117004;28;20257;-72
2022/03/19 03:01:55;;;;;;;3.93;3.63;;;4.70;76.30;3.90;100319.00;;;;5116799;28;20528;-71
2022/03/19 03:04:23;;;;;;;8.10;5.87;;;4.70;76.70;3.80;100319.00;;;;5116747;28;20202;-73
2022/03/19 03:06:56;;;;;;;7.47;4.83;;;4.70;76.60;3.90;100304.00;;;;5116814;28;20318;-71
2022/03/19 03:09:25;;;;;;;5.43;4.93;;;4.70;77.00;3.90;100315.00;;;;5116939;28;20190;-72
2022/03/19 03:11:54;;;;;;;5.37;4.93;;;4.70;77.30;3.90;100307.00;;;;5098882;28;20700;-71
2022/03/19 03:14:21;;;;;;;8.83;4.63;;;4.80;77.10;3.90;100313.00;;;;5116545;28;20194;-72
2022/03/19 03:16:49;;;;;;;4.63;4.33;;;4.70;76.70;3.80;100322.00;;;;5116770;28;20198;-73
2022/03/19 03:19:19;;;;;;;4.07;3.63;;;4.70;76.50;3.80;100320.00;;;;5116652;28;20680;-72
2022/03/19 03:21:47;;;;;;;3.40;3.20;;;4.60;76.70;3.60;100285.00;;;;5098789;28;20617;-72
2022/03/19 03:24:14;;;;;;;5.10;4.20;;;4.60;76.40;3.50;100315.00;;;;5115373;28;20206;-71
2022/03/19 03:26:44;;;;;;;5.83;5.33;;;4.50;77.40;3.50;100317.00;;;;5116339;28;20233;-72
2022/03/19 03:29:14;;;;;;;4.13;3.67;;;4.50;77.80;3.60;100324.00;;;;5116536;28;20194;-72
2022/03/19 03:31:40;;;;;;;4.20;3.90;;;4.40;78.20;3.50;100318.00;;;;5116422;28;20237;-71
2022/03/19 03:34:07;;;;;;;3.27;3.07;;;4.40;78.70;3.50;100311.00;;;;5116552;28;20235;-71
2022/03/19 03:36:34;;;;;;;5.13;4.70;;;4.40;79.00;3.60;100310.00;;;;5116331;28;20189;-71
2022/03/19 03:39:00;;;;;;;5.10;4.03;;;4.50;79.30;3.60;100312.00;;;;5116060;28;20272;-71
2022/03/19 03:41:30;;;;;;;5.10;4.63;;;4.50;79.00;3.70;100305.00;;;;5098205;28;20300;-72
2022/03/19 03:43:56;;;;;;;5.10;4.70;;;4.50;78.80;3.60;100306.00;;;;5116195;28;20202;-71
2022/03/19 03:46:24;;;;;;;6.43;5.07;;;4.50;78.60;3.80;100307.00;;;;5097941;28;20236;-71
2022/03/19 03:48:50;;;;;;;3.23;3.00;;;4.60;78.70;3.80;100305.00;;;;5116153;28;20237;-71
2022/03/19 03:51:20;;;;;;;4.87;4.27;;;4.60;78.50;3.80;100304.00;;;;5116104;28;20198;-71
2022/03/19 03:53:49;;;;;;;3.13;2.83;;;4.60;78.20;3.80;100302.00;;;;5116048;28;20664;-71
2022/03/19 03:56:16;;;;;;;3.93;3.60;;;4.60;78.00;3.70;100306.00;;;;5116003;28;20197;-71
2022/03/19 03:58:45;;;;;;;4.03;3.37;;;4.60;77.30;3.80;100312.00;;;;5116047;28;20289;-71
2022/03/19 04:01:12;;;;;;;6.03;4.83;;;4.60;78.40;3.70;100297.00;;;;5115933;28;20205;-71
2022/03/19 04:03:39;;;;;;;4.43;4.03;;;4.60;76.60;3.70;100288.00;;;;5115873;28;20190;-71
2022/03/19 04:06:06;;;;;;;4.90;4.50;;;4.50;77.10;3.70;100287.00;;;;5097730;28;20225;-73
2022/03/19 04:08:33;;;;;;;6.17;5.57;;;4.50;76.60;3.70;100296.00;;;;5115904;28;20238;-71
2022/03/19 04:10:59;;;;;;;3.37;3.17;;;4.50;76.50;3.60;100300.00;;;;5115722;28;20205;-72
2022/03/19 04:13:28;;;;;;;3.80;3.53;;;4.50;76.20;3.60;100295.00;;;;5115585;28;20212;-73
2022/03/19 04:15:55;;;;;;;7.57;6.10;;;4.50;76.50;3.70;100292.00;;;;5115772;28;20694;-71
2022/03/19 04:18:22;;;;;;;4.00;3.70;;;4.50;77.00;3.60;100295.00;;;;5115559;28;20201;-71
2022/03/19 04:20:51;;;;;;;3.63;3.40;;;4.50;76.30;3.50;100285.00;;;;5115538;28;20247;-71
2022/03/19 04:23:18;;;;;;;4.93;4.47;;;4.40;75.70;3.40;100288.00;;;;5115561;28;20194;-71
2022/03/19 04:25:47;;;;;;;5.03;4.63;;;4.40;75.80;3.50;100286.00;;;;5115443;28;20221;-71
2022/03/19 04:28:14;;;;;;;4.23;3.93;;;4.40;76.10;3.40;100285.00;;;;5097472;28;20267;-71
2022/03/19 04:30:41;;;;;;;8.93;4.83;;;4.30;75.90;3.40;100285.00;;;;5115343;28;20198;-71
2022/03/19 04:33:08;;;;;;;5.50;5.03;;;4.40;76.30;3.50;100272.00;;;;5115312;28;20249;-71
2022/03/19 04:38:23;;;;;;;4.53;4.13;;;4.40;77.10;3.70;100287.00;;;;5115329;28;20174;-71
2022/03/19 04:40:53;;;;;;;4.17;3.77;;;4.50;76.60;3.70;100288.00;;;;5115231;28;20591;-71
2022/03/19 04:43:20;;;;;;;4.57;4.17;;;4.50;77.40;3.80;100288.00;;;;5097280;28;20255;-71
2022/03/19 04:45:47;;;;;;;6.43;3.80;;;4.60;76.40;3.80;100278.00;;;;5115085;28;20225;-71
2022/03/19 04:48:13;;;;;;;4.93;4.63;;;4.60;75.70;3.80;100278.00;;;;5115042;28;20245;-71
2022/03/19 04:50:42;;;;;;;8.70;5.93;;;4.60;75.50;3.90;100263.00;;;;5115038;28;20193;-71
2022/03/19 04:53:10;;;;;;;3.17;2.90;;;4.70;74.90;3.90;100276.00;;;;5114939;28;20233;-73
2022/03/19 04:55:40;;;;;;;5.17;4.70;;;4.70;74.50;3.90;100279.00;;;;5115017;28;20206;-72
2022/03/19 04:58:09;;;;;;;2.93;2.73;;;4.70;74.00;3.90;100273.00;;;;5114976;28;20273;-71
2022/03/19 05:00:38;;;;;;;9.37;4.50;;;4.70;74.00;3.90;100276.00;;;;5114836;28;20288;-71
2022/03/19 05:03:06;;;;;;;6.70;4.30;;;4.70;74.30;3.90;100252.00;;;;5115003;28;20299;-71
2022/03/19 05:05:32;;;;;;;5.50;5.00;;;4.70;74.00;3.80;100212.00;;;;5114953;28;20236;-71
2022/03/19 05:07:59;;;;;;;5.93;5.33;;;4.70;74.00;3.80;100273.00;;;;5114702;28;20271;-71
2022/03/19 05:13:12;;;;;;;4.47;4.07;;;4.60;74.60;3.70;100254.00;;;;5114665;28;20268;-71
2022/03/19 05:15:41;;;;;;;6.63;5.03;;;4.70;74.00;3.80;100257.00;;;;5114750;28;20205;-71
2022/03/19 05:18:10;;;;;;;4.20;3.80;;;4.70;73.60;4.00;100265.00;;;;5114582;28;20246;-72
2022/03/19 05:20:37;;;;;;;3.77;3.57;;;4.70;73.40;3.90;100267.00;;;;5114891;28;20213;-72
2022/03/19 05:23:06;;;;;;;4.23;3.87;;;4.70;72.80;3.80;100256.00;;;;5114521;28;20201;-72
2022/03/19 05:25:32;;;;;;;3.93;3.40;;;4.60;72.90;3.90;100269.00;;;;5114615;28;20215;-71
2022/03/19 05:27:59;;;;;;;10.30;5.33;;;4.60;73.20;3.90;100256.00;;;;5114590;28;20220;-71
2022/03/19 05:30:30;;;;;;;4.20;3.40;;;4.70;73.10;3.70;100267.00;;;;5114587;28;20228;-72
2022/03/19 05:32:57;;;;;;;7.07;6.13;;;4.60;72.90;3.70;100258.00;;;;5114382;28;20217;-71
2022/03/19 05:35:26;;;;;;;4.90;3.90;;;4.60;73.20;3.70;100251.00;;;;5114423;28;20209;-71
2022/03/19 05:37:53;;;;;;;4.40;4.00;;;4.60;73.30;3.80;100247.00;;;;5114359;28;20198;-71
2022/03/19 05:40:22;;;;;;;4.73;4.17;;;4.50;74.10;3.90;100248.00;;;;5114585;28;20524;-72
2022/03/19 05:42:50;;;;;;;5.63;4.37;;;4.60;73.40;3.80;100251.00;;;;5114266;28;20216;-71
2022/03/19 05:45:19;;;;;;;6.50;5.90;;;4.60;72.90;3.70;100261.00;;;;5114234;28;20300;-71
2022/03/19 05:47:47;;;;;;;10.93;6.43;;;4.60;73.50;3.70;100256.00;;;;5113473;28;20222;-71
2022/03/19 05:50:17;;;;;;;5.10;4.70;;;4.60;73.10;3.60;100249.00;;;;5114166;28;20194;-71
2022/03/19 05:52:45;;;;;;;3.43;3.23;;;4.50;73.20;3.80;100253.00;;;;5114145;28;20281;-71
2022/03/19 05:55:13;;;;;;;5.97;5.37;;;4.60;73.70;3.80;100261.00;;;;5114471;28;20208;-71
2022/03/19 05:57:42;;;;;;;3.37;3.10;;;4.60;73.10;3.80;100258.00;;;;5114428;28;20640;-72
2022/03/19 06:00:12;;;;;;;5.23;4.80;;;4.60;73.00;3.90;100260.00;;;;5096179;28;20629;-73
2022/03/19 06:02:40;;;;;;;7.20;4.00;;;4.60;73.20;3.80;100254.00;;;;5096320;28;20625;-72
2022/03/19 06:05:09;;;;;;;3.70;3.50;;;4.60;72.80;3.90;100259.00;;;;5115653;28;20250;-71
2022/03/19 06:07:38;;;;;;;3.73;3.53;;;4.70;73.20;3.90;100260.00;;;;5114358;28;20225;-72
2022/03/19 06:10:06;;;;;;;4.53;4.13;;;4.70;73.30;3.80;100244.00;;;;5114442;28;20274;-71
2022/03/19 06:12:33;;;;;;;5.03;4.60;;;4.70;72.70;3.90;100260.00;;;;5114899;28;20232;-71
2022/03/19 06:15:00;;;;;;;4.47;3.70;;;4.70;73.00;3.80;100263.00;;;;5117100;28;20205;-71
2022/03/19 06:17:27;;;;;;;4.73;4.33;;;4.60;73.00;3.90;100268.00;;;;5115542;28;20205;-71
2022/03/19 06:19:54;;;;;;;3.93;2.93;;;4.70;72.80;3.90;100262.00;;;;5113763;28;20629;-72
2022/03/19 06:22:22;;;;;;;14.63;4.67;;;4.70;72.90;4.00;100266.00;;;;5114432;28;20197;-73
2022/03/19 06:24:48;;;;;;;4.00;3.53;;;4.80;72.80;4.00;100264.00;;;;5114676;28;20194;-71
2022/03/19 06:27:15;;;;;;;4.90;4.50;;;4.80;72.70;4.00;100272.00;;;;5118146;28;20232;-72
2022/03/19 06:29:41;;;;;;;5.27;4.90;;;4.80;72.40;4.10;100270.00;;;;5113686;28;20194;-71
2022/03/19 06:32:09;;;;;;;5.00;4.60;;;4.90;72.40;4.20;100267.00;;;;5113727;28;20232;-71
2022/03/19 06:34:35;;;;;;;6.80;5.40;;;5.00;72.10;4.30;100268.00;;;;5095716;28;20639;-71
2022/03/19 06:37:20;;;;;;;9.90;4.70;;;5.00;72.00;4.40;100269.00;;;;5113803;28;20190;-71
2022/03/19 06:39:49;;;;;;;4.63;3.83;;;5.10;71.80;4.50;100270.00;;;;5113602;28;20214;-71
2022/03/19 06:42:16;;;;;;;4.83;4.33;;;5.20;71.40;4.50;100264.00;;;;5113458;28;20280;-72
2022/03/19 06:44:43;;;;;;;5.67;4.50;;;5.20;71.10;4.60;100264.00;;;;5113451;28;20204;-71
2022/03/19 06:47:09;;;;;;;3.77;3.47;;;5.30;70.60;4.60;100262.00;;;;5113476;28;20295;-72
2022/03/19 06:49:36;;;;;;;5.93;4.33;;;5.40;70.30;4.60;100261.00;;;;5095780;28;20241;-73
2022/03/19 06:52:04;;;;;;;4.17;3.87;;;5.40;70.20;4.80;100257.00;;;;5113211;28;20254;-73
2022/03/19 06:54:30;;;;;;;7.83;5.77;;;5.50;70.40;5.00;100267.00;;;;5113336;28;20205;-71
2022/03/19 06:56:58;;;;;;;4.20;3.47;;;5.60;69.90;5.00;100269.00;;;;5113364;28;20286;-71
2022/03/19 06:59:27;;;;;;;3.73;2.60;;;5.70;68.20;5.30;100261.00;;;;5115889;28;20309;-71
2022/03/19 07:01:53;;;;;;;5.83;4.53;;;5.80;68.30;5.10;100260.00;;;;5116789;28;20197;-71
2022/03/19 07:04:20;;;;;;;4.00;3.73;;;5.80;67.50;5.10;100267.00;;;;5116832;28;20243;-71
2022/03/19 07:06:47;;;;;;;4.97;4.63;;;5.80;67.60;5.20;100265.00;;;;5116683;28;20294;-71
2022/03/19 07:09:14;;;;;;;9.13;5.47;;;5.90;67.80;5.20;100265.00;;;;5116739;28;20211;-71
2022/03/19 07:11:41;;;;;;;5.13;4.63;;;5.90;67.50;5.20;100263.00;;;;5116641;28;20236;-71
2022/03/19 07:14:09;;;;;;;3.77;3.47;;;5.90;67.60;5.30;100261.00;;;;5116590;28;20300;-71
2022/03/19 07:16:38;;;;;;;4.50;4.20;;;6.00;66.90;5.40;100258.00;;;;5116592;28;20216;-71
2022/03/19 07:19:05;;;;;;;5.17;3.60;;;6.10;66.60;5.30;100261.00;;;;5116461;28;20236;-71
2022/03/19 07:21:32;;;;;;;4.37;4.00;;;6.10;66.00;5.50;100261.00;;;;5116330;28;20300;-71
2022/03/19 07:23:58;;;;;;;4.93;3.77;;;6.20;65.90;5.60;100262.00;;;;5116465;28;20201;-71
2022/03/19 07:26:26;;;;;;;4.93;4.47;;;6.20;65.80;5.70;100257.00;;;;5116341;28;20226;-72
2022/03/19 07:28:52;;;;;;;3.63;3.33;;;6.30;65.60;5.70;100250.00;;;;5116345;28;20210;-71
2022/03/19 07:31:19;;;;;;;3.33;3.07;;;6.40;64.70;5.80;100252.00;;;;5098366;28;20198;-71
2022/03/19 07:33:47;;;;;;;3.77;3.53;;;6.50;64.40;5.80;100245.00;;;;5116249;28;20179;-71
2022/03/19 07:36:13;;;;;;;4.40;4.00;;;6.50;63.60;5.90;100253.00;;;;5116194;28;20195;-71
2022/03/19 07:38:40;;;;;;;6.50;3.93;;;6.60;63.60;6.00;100256.00;;;;5116344;28;20284;-71
2022/03/19 07:43:51;;;;;;;4.50;4.20;;;6.70;62.90;6.20;100254.00;;;;5116115;28;20205;-71
2022/03/19 07:46:20;;;;;;;9.30;3.23;;;6.90;62.90;6.30;100246.00;;;;5116004;28;20537;-71
2022/03/19 07:48:47;;;;;;;4.83;4.43;;;6.90;61.60;6.40;100253.00;;;;5115984;28;20220;-71
2022/03/19 07:51:14;;;;;;;4.20;3.90;;;7.10;60.90;6.40;100237.00;;;;5115897;28;20243;-71
2022/03/19 07:53:41;;;;;;;8.37;5.17;;;7.10;61.10;6.40;100245.00;;;;5115942;28;20335;-72
2022/03/19 07:56:07;;;;;;;5.63;3.07;;;7.10;61.10;6.60;100243.00;;;;5115875;28;20319;-71
2022/03/19 07:58:34;;;;;;;2.23;2.13;;;7.20;59.40;6.60;100238.00;;;;5115905;28;20190;-72
2022/03/19 08:01:03;;;;;;;5.30;4.63;;;7.30;58.40;6.70;100244.00;;;;5116014;28;20271;-71
2022/03/19 08:03:30;;;;;;;3.00;2.60;;;7.40;58.50;6.80;100251.00;;;;5115922;28;20305;-71
2022/03/19 08:05:57;;;;;;;6.17;4.07;;;7.40;57.50;6.90;100241.00;;;;5115773;28;20349;-71
2022/03/19 08:08:25;;;;;;;5.90;3.57;;;7.50;56.50;6.90;100238.00;;;;5097723;28;20234;-72
2022/03/19 08:10:52;;;;;;;3.77;3.23;;;7.60;56.50;7.10;100236.00;;;;5115464;28;20294;-72
2022/03/19 08:13:18;;;;;;;8.83;4.37;;;7.70;55.80;7.30;100229.00;;;;5115528;28;20256;-71
2022/03/19 08:15:45;;;;;;;3.90;3.60;;;7.80;54.80;7.20;100237.00;;;;5115598;28;20299;-71
2022/03/19 08:18:13;;;;;;;4.83;3.63;;;7.90;54.80;7.30;100228.00;;;;5115370;28;20221;-71
2022/03/19 08:20:40;;;;;;;3.77;3.47;;;7.90;54.90;7.50;100231.00;;;;5115537;28;20196;-72
2022/03/19 08:23:13;;;;;;;3.80;3.43;;;8.10;53.60;7.40;100211.00;;;;5115352;28;20233;-73
2022/03/19 08:25:42;;;;;;;7.17;5.73;;;8.00;53.20;7.60;100219.00;;;;5115376;28;20203;-73
2022/03/19 08:28:11;;;;;;;11.00;4.37;;;8.20;52.50;7.60;100212.00;;;;5097576;28;20226;-72
2022/03/19 08:30:37;;;;;;;3.53;3.23;;;8.30;50.70;7.80;100200.00;;;;5115429;28;20218;-71
2022/03/19 08:33:06;;;;;;;3.20;2.93;;;8.40;49.70;7.80;100200.00;;;;5115378;28;20293;-72
2022/03/19 08:35:33;;;;;;;3.60;3.30;;;8.40;48.70;7.90;100211.00;;;;5115193;28;20318;-72
2022/03/19 08:40:47;;;;;;;3.00;2.80;;;8.60;47.90;8.10;100199.00;;;;5115303;28;20339;-71
2022/03/19 08:43:14;;;;;;;6.77;3.67;;;8.60;47.90;8.30;100201.00;;;;5115086;28;20645;-72
2022/03/19 08:45:43;;;;;;;3.50;3.30;;;8.80;47.30;8.30;100205.00;;;;5115103;28;20208;-71
2022/03/19 08:48:13;;;;;;;3.53;2.93;;;8.90;45.50;8.30;100188.00;;;;5114824;28;20238;-71
2022/03/19 08:50:40;;;;;;;4.43;3.00;;;8.90;45.80;8.30;100188.00;;;;5114753;28;20221;-71
2022/03/19 08:53:07;;;;;;;2.93;2.73;;;9.00;46.50;8.40;100190.00;;;;5114664;28;20221;-72
2022/03/19 08:55:34;;;;;;;5.07;2.93;;;9.00;46.20;8.50;100187.00;;;;5114728;28;20607;-71
2022/03/19 08:58:00;;;;;;;2.07;1.97;;;9.20;45.40;8.50;100186.00;;;;5114584;28;20300;-71
2022/03/19 09:00:27;;;;;;;3.37;3.00;;;9.20;44.80;8.60;100178.00;;;;5114755;28;20205;-71
2022/03/19 09:02:56;;;;;;;1.83;1.73;;;9.30;44.90;8.60;100186.00;;;;5114660;28;20256;-71
2022/03/19 09:05:23;;;;;;;5.07;4.00;;;9.20;44.90;8.70;100177.00;;;;5114671;28;20338;-72
2022/03/19 09:07:50;;;;;;;8.50;5.23;;;9.30;43.90;8.90;100180.00;;;;5114548;28;20217;-72
2022/03/19 09:10:17;;;;;;;3.50;3.20;;;9.40;45.10;9.00;100167.00;;;;5114475;28;20239;-72
2022/03/19 09:12:46;;;;;;;4.77;4.37;;;9.60;44.10;8.90;100158.00;;;;5114560;28;20644;-74
2022/03/19 09:15:13;;;;;;;4.07;3.77;;;9.60;44.10;9.00;100175.00;;;;5114651;28;20238;-72
2022/03/19 09:17:41;;;;;;;3.33;3.03;;;9.60;43.80;9.10;100165.00;;;;5079939;28;20210;-72
2022/03/19 09:20:10;;;;;;;2.30;2.17;;;9.70;44.60;9.20;100171.00;;;;5114277;28;20198;-73
2022/03/19 09:22:38;;;;;;;3.10;2.90;;;9.80;43.70;9.40;100166.00;;;;5113535;28;20198;-73
2022/03/19 09:25:05;;;;;;;3.77;2.63;;;9.90;43.40;9.40;100164.00;;;;5114542;28;20272;-72
2022/03/19 09:27:33;;;;;;;3.10;2.80;;;10.00;43.20;9.40;100166.00;;;;5114422;28;20229;-72
2022/03/19 09:29:59;;;;;;;6.17;5.50;;;10.00;42.10;9.40;100166.00;;;;5114513;28;20194;-72
2022/03/19 09:32:26;;;;;;;5.83;4.23;;;10.00;42.90;9.50;100168.00;;;;5114435;28;20656;-72
2022/03/19 09:34:53;;;;;;;5.63;4.63;;;10.10;43.20;9.60;100167.00;;;;5114312;28;20210;-73
2022/03/19 09:37:20;;;;;;;2.30;2.03;;;10.20;42.90;9.70;100154.00;;;;5114191;28;20218;-72
2022/03/19 09:39:49;;;;;;;10.47;4.67;;;10.20;43.60;9.90;100153.00;;;;5114659;28;20212;-73
2022/03/19 09:42:16;;;;;;;5.90;5.47;;;10.50;42.90;9.90;100152.00;;;;5096756;28;20587;-72
2022/03/19 09:44:43;;;;;;;3.83;3.57;;;10.50;42.20;9.90;100148.00;;;;5114500;28;20633;-72
2022/03/19 09:47:11;;;;;;;3.63;3.43;;;10.50;43.40;10.00;100135.00;;;;5114652;28;20356;-73
2022/03/19 09:49:37;;;;;;;4.50;3.90;;;10.60;43.70;10.30;100124.00;;;;5115173;28;20217;-74
2022/03/19 09:52:05;;;;;;;5.30;3.83;;;10.80;42.50;10.40;100136.00;;;;5116811;28;20198;-74
2022/03/19 09:54:32;;;;;;;4.53;4.20;;;10.90;42.20;10.30;100124.00;;;;5115313;28;20217;-74
2022/03/19 09:56:59;;;;;;;2.80;2.57;;;10.90;40.90;10.30;100108.00;;;;5096624;28;20263;-75
2022/03/19 09:59:27;;;;;;;4.77;3.77;;;10.90;40.70;10.60;100109.00;;;;5113720;28;20226;-74
2022/03/19 10:01:54;;;;;;;4.23;3.83;;;11.20;40.80;10.80;100099.00;;;;5114674;28;20221;-74
2022/03/19 10:04:21;;;;;;;6.57;5.60;;;11.30;40.10;10.80;100096.00;;;;5114656;28;20300;-73
2022/03/19 10:09:42;;;;;;;2.93;2.73;;;11.40;40.10;10.90;100099.00;;;;5113975;28;20312;-74
2022/03/19 10:12:14;;;;;;;9.77;6.13;;;11.50;40.60;11.00;100092.00;;;;5113970;28;20201;-73
2022/03/19 10:14:45;;;;;;;3.27;3.03;;;11.50;39.90;11.00;100091.00;;;;5113715;28;20230;-73
2022/03/19 10:17:26;;;;;;;7.17;4.00;;;11.50;39.60;11.10;100090.00;;;;5113671;28;20224;-74
2022/03/19 10:20:00;;;;;;;5.40;3.47;;;11.60;39.90;11.30;100089.00;;;;5113729;28;20222;-72
2022/03/19 10:22:30;;;;;;;5.77;4.07;;;11.80;39.40;11.40;100083.00;;;;5095753;28;20289;-74
2022/03/19 10:25:00;;;;;;;5.47;4.17;;;12.00;38.70;11.50;100088.00;;;;5113862;28;20265;-71
2022/03/19 10:27:31;;;;;;;3.60;3.27;;;12.00;38.90;11.60;100080.00;;;;5095608;28;20310;-71
2022/03/19 10:30:05;;;;;;;4.10;3.80;;;12.20;38.80;11.80;100080.00;;;;5113598;28;20217;-73
2022/03/19 10:32:33;;;;;;;6.93;4.67;;;12.30;38.60;11.90;100070.00;;;;5113755;28;20288;-73
2022/03/19 10:35:01;;;;;;;4.37;4.00;;;12.30;38.30;12.00;100073.00;;;;5117026;28;20275;-72
2022/03/19 10:37:37;;;;;;;5.87;4.73;;;12.50;36.80;11.80;100075.00;;;;5117188;28;20194;-72
2022/03/19 10:40:10;;;;;;;3.20;3.00;;;12.50;36.50;11.80;100063.00;;;;5117085;28;20193;-73
2022/03/19 10:42:43;;;;;;;5.13;3.93;;;12.40;37.60;11.70;100044.00;;;;5117078;28;20235;-73
2022/03/19 10:45:19;;;;;;;3.00;2.80;;;12.30;37.50;11.90;100041.00;;;;5116946;28;20182;-74
2022/03/19 10:47:49;;;;;;;5.87;5.27;;;12.40;37.60;12.10;100038.00;;;;5098969;28;20290;-72
2022/03/19 10:50:23;;;;;;;4.10;3.80;;;12.60;36.90;12.10;100036.00;;;;5117114;28;20271;-71
2022/03/19 10:52:52;;;;;;;4.53;4.13;;;12.60;37.00;12.20;100031.00;;;;5117210;28;20198;-71
2022/03/19 10:55:20;;;;;;;2.93;2.73;;;12.70;36.20;12.20;100034.00;;;;5116966;28;20227;-71
2022/03/19 10:57:47;;;;;;;2.67;2.47;;;12.70;36.50;12.20;100018.00;;;;5098844;28;20309;-72
2022/03/19 11:00:16;;;;;;;3.03;2.80;;;12.70;35.50;12.00;100004.00;;;;5116754;28;20552;-71
2022/03/19 11:02:47;;;;;;;4.63;4.20;;;12.60;35.00;12.40;100000.00;;;;5116787;28;20217;-72
2022/03/19 11:05:19;;;;;;;2.17;2.07;;;12.80;36.10;12.60;99998.00;;;;5116755;28;20208;-72
2022/03/19 11:07:48;;;;;;;2.03;1.93;;;13.00;35.20;13.00;99998.00;;;;5116486;28;20314;-72
2022/03/19 11:10:15;;;;;;;2.23;2.13;;;13.40;34.30;13.20;99964.00;;;;5116610;28;20202;-71
2022/03/19 11:12:50;;;;;;;3.13;2.93;;;13.60;33.10;13.40;99991.00;;;;5116598;28;20240;-71
2022/03/19 11:15:19;;;;;;;2.97;2.70;;;13.80;30.80;13.50;99984.00;;;;5098970;28;20201;-71
2022/03/19 11:17:51;;;;;;;2.53;2.33;;;14.00;30.80;13.70;99979.00;;;;5116759;28;20255;-71
2022/03/19 11:20:18;;;;;;;3.70;3.23;;;14.10;31.30;13.80;99981.00;;;;5116426;28;20244;-71